Clover Valley, Nevada Weather observations

Data are for 10 minute period ending at time listed.
 Day   Time   Solar   Ave.   Ave.  Ave.  Vector  Max.   Baro.   Total    
  of    of     Rad.   Air    Rel.  Wind   Wind   Wind  Press.  Precip.   
Year   Day            Temp.  Hum.  Speed  Dir.   Gust                    
2014   (PST)  Kw/m2    F      %     mph   deg.    mph    mb.     in.     
-------------------------------------------------------------------------
 328   21:20   0.00   25.9    86    4.2   333     8.3   836.6    0.00 
 328   21:30   0.00   26.7    84    6.2   356     9.5   836.7    0.00 
 328   21:40   0.00   26.6    82    5.2   324     7.7   836.6    0.00 
 328   21:50   0.00   26.4    81    6.1   304     7.4   836.7    0.00 
 328   22:00   0.00   26.2    82    5.5   322     7.5   836.6    0.00 
 328   22:10   0.00   25.9    82    4.0   342     6.0   836.6    0.00 
 328   22:20   0.00   25.4    84    2.9   203     4.3   836.5    0.00 
 328   22:30   0.00   25.8    83    2.2   228     4.2   836.3    0.00 
 328   22:40   0.00   26.8    79    1.8   239     3.7   836.5    0.00 
 328   22:50   0.00   26.9    78    3.0   186     6.0   836.5    0.00 
 328   23:00   0.00   26.8    78    2.8     2     5.6   836.7    0.00 
 328   23:10   0.00   27.3    76    2.0   314     3.7   836.8    0.00 
 328   23:20   0.00   26.6    80    3.3   308     6.1   836.8    0.00 
 328   23:30   0.00   25.8    85    2.5   304     4.6   836.5    0.00 
 328   23:40   0.00   25.5    86    3.0   302     7.8   836.5    0.00 
 328   23:50   0.00   26.2    83    3.9   299     7.3   836.3    0.00 
 329    0:00   0.00   26.0    84    4.6   327     9.1   836.3    0.00 
 329    0:10   0.00   25.9    87    4.4    23     6.2   836.2    0.00 
 329    0:20   0.00   27.2    80    4.2     1     7.3   836.2    0.00 
 329    0:30   0.00   27.9    78    3.8    38     6.7   836.3    0.00 
 329    0:40   0.00   28.6    73    4.8    96     9.3   836.0    0.00 
 329    0:50   0.00   28.4    74    3.0   269     6.0   835.8    0.00 
 329    1:00   0.00   27.9    76    2.7   286     6.5   835.8    0.00 
 329    1:10   0.00   30.7    62    3.7   236     9.8   835.6    0.00 
 329    1:20   0.00   33.0    52    5.7   171    16.5   835.6    0.00 
 329    1:30   0.00   34.3    50    8.2   306    14.0   835.5    0.00 
 329    1:40   0.00   33.0    58    5.8   334    13.7   835.8    0.00 
 329    1:50   0.00   32.0    58    5.0   263    10.8   835.8    0.00 
 329    2:00   0.00   33.4    53    6.8   255    16.5   835.5    0.00 
 329    2:10   0.00   35.8    44    7.6    58    18.8   835.3    0.00 
 329    2:20   0.00   35.9    46    7.4     0    13.3   835.4    0.00 
 329    2:30   0.00   34.2    51    4.5   344    10.3   835.4    0.00 
 329    2:40   0.00   36.9    40    5.9     5    11.0   835.2    0.00 
 329    2:50   0.00   37.5    40    6.8   344    10.2   835.2    0.00 
 329    3:00   0.00   39.2    37    9.7   140    17.5   835.2    0.00 
 329    3:10   0.00   39.8    37    6.8   152    12.0   835.1    0.00 
 329    3:20   0.00   36.0    46    6.7    66    12.3   835.1    0.00 
 329    3:30   0.00   33.2    53    6.5    72    12.0   835.1    0.00 
 329    3:40   0.00   33.1    54    7.4    87    11.0   834.9    0.00 
 329    3:50   0.00   32.5    57    6.3    95    14.0   834.9    0.00 
 329    4:00   0.00   33.5    54   10.4    68    17.6   834.6    0.00 
 329    4:10   0.00   35.2    49    4.3   127    10.7   834.6    0.00 
 329    4:20   0.00   36.1    48    6.5   174    12.6   834.4    0.00 
 329    4:30   0.00   36.3    47    4.4   154    10.5   834.4    0.00 
 329    4:40   0.00   35.0    52    3.9    89    10.4   834.2    0.00 
 329    4:50   0.00   35.5    52    2.8   275     7.6   834.0    0.00 
 329    5:00   0.00   37.8    49    4.6   128    10.9   833.9    0.00 
 329    5:10   0.00   34.7    58    7.1    33    14.5   834.2    0.00 
 329    5:20   0.00   34.4    58    7.2    52    10.2   834.5    0.00 
 329    5:30   0.00   36.2    54    4.5    40    12.2   834.6    0.00 
 329    5:40   0.00   37.6    53    3.6   229     8.8   834.4    0.00 
 329    5:50   0.00   41.0    46    6.0   211    15.4   834.2    0.00 
 329    6:00   0.00   42.1    45    6.3   239    15.0   833.8    0.00 
 329    6:10   0.00   41.6    47   10.2    27    30.5   833.5    0.00 
 329    6:20   0.00   38.3    54    9.8    25    19.1   833.9    0.00 
 329    6:30   0.00   36.8    57    4.0    17     8.1   834.2    0.00 
 329    6:40   0.00   36.5    57    5.0     7     9.1   834.2    0.00 
 329    6:50   0.01   38.5    57    8.7   344    19.8   834.1    0.00 
 329    7:00   0.08   45.2    50   14.9   294    22.9   834.0    0.00 
 329    7:10   0.11   45.7    49   17.3   300    37.3   833.9    0.00 
 329    7:20   0.13   46.7    48   17.3   311    25.5   833.8    0.00 
 329    7:30   0.13   46.9    47   11.5   313    21.7   833.9    0.00 
 329    7:40   0.17   46.9    46    7.4   246    14.7   834.2    0.00 
 329    7:50   0.19   44.9    47    7.4    27    14.5   834.1    0.00 
 329    8:00   0.22   46.4    45    5.3    14    15.5   834.0    0.00 
 329    8:10   0.24   46.4    46    8.2   280    15.9   834.1    0.00 
 329    8:20   0.29   46.3    47   13.3   279    21.6   834.4    0.00 
 329    8:30   0.34   48.6    46   13.9   289    21.8   834.5    0.00 
 329    8:40   0.37   48.5    46   14.6   285    21.2   834.8    0.00 
 329    8:50   0.16   46.9    48   18.2   285    28.9   835.1    0.00 
 329    9:00   0.13   46.6    51   15.7   312    23.0   835.2    0.00 
 329    9:10   0.15   46.2    50   12.0   281    19.1   835.4    0.00 
 329    9:20   0.17   44.9    50   21.1   241    29.6   835.0    0.00 
 329    9:30   0.23   45.6    50   20.1   249    31.1   835.1    0.00 
 329    9:40   0.31   46.8    50   24.6   255    35.7   835.0    0.00 
 329    9:50   0.25   46.4    51   24.8   258    38.1   834.8    0.00 
 329   10:00   0.37   47.6    48   20.2   278    33.0   835.1    0.00 
 329   10:10   0.49   48.3    47   21.0   264    30.7   835.1    0.00 
 329   10:20   0.55   48.8    45   22.8   262    35.9   834.8    0.00 
 329   10:30   0.56   48.1    46   22.1   266    34.2   834.8    0.00 
 329   10:40   0.53   47.8    47   25.3   271    34.9   834.5    0.00 
 329   10:50   0.53   48.9    47   22.7   279    35.1   834.5    0.00 
 329   11:00   0.27   49.3    47   23.0   279    41.1   834.4    0.00 
 329   11:10   0.21   49.6    47   23.4   285    33.2   834.5    0.00 
 329   11:20   0.16   49.9    46   22.1   282    32.4   834.3    0.00 
 329   11:30   0.41   50.9    45   22.7   287    33.0   834.3    0.00 
 329   11:40   0.57   50.5    45   23.0   279    35.6   834.2    0.00 
 329   11:50   0.55   49.8    47   19.9   280    32.2   834.0    0.00 
 329   12:00   0.56   50.8    45   26.2   280    40.5   833.9    0.00 
 329   12:10   0.55   50.5    46   25.0   270    40.1   834.0    0.00 
 329   12:20   0.53   49.9    47   24.2   275    34.8   834.0    0.00 
 329   12:30   0.51   50.3    46   23.1   267    35.6   834.0    0.00 
 329   12:40   0.49   50.5    46   25.1   280    35.4   833.9    0.00 
 329   12:50   0.47   50.4    46   23.4   265    34.4   834.1    0.00 
 329   13:00   0.45   50.3    46   22.0   270    42.8   834.3    0.00 
 329   13:10   0.06   48.3    49   20.6   255    43.3   834.3    0.00 
 329   13:20   0.04   48.2    50   16.7   259    26.8   834.3    0.00 
 329   13:30   0.00   48.4    49   16.9   266    26.5   834.2    0.00 
 329   13:40   0.05   47.8    50   16.4   264    24.8   834.1    0.00 
 329   13:50   0.05   48.4    50   14.0   275    24.5   834.0    0.00 
 329   14:00   0.05   49.5    49   18.1   273    30.4   833.8    0.00 
 329   14:10   0.05   50.0    48   14.0   283    24.0   833.9    0.00 
 329   14:20   0.06   50.5    47   11.8   277    22.6   834.0    0.00 
 329   14:30   0.08   49.7    49   11.2   255    18.5   834.1    0.00 
 329   14:40   0.09   50.1    48   10.3   248    19.6   833.9    0.00 
 329   14:50   0.07   50.1    48   13.5   237    22.5   833.8    0.00 
 329   15:00   0.14   50.6    47   15.9   242    24.3   833.9    0.00 
 329   15:10   0.00   50.0    48   18.0   240    26.5   834.0    0.00 
 329   15:20   0.00   49.7    48   19.0   251    33.1   834.1    0.00 
 329   15:30   0.03   48.6    51   13.7   254    21.0   834.4    0.00 
 329   15:40   0.04   48.1    52   13.9   253    24.3   834.3    0.00 
 329   15:50   0.03   47.7    52   14.6   250    20.8   834.3    0.00 
 329   16:00   0.02   47.8    52   12.6   240    19.2   834.1    0.00 
 329   16:10   0.04   48.3    50   14.8   251    23.0   834.0    0.00 
 329   16:20   0.02   47.2    53   12.5   244    20.9   834.2    0.00 
 329   16:30   0.01   47.0    53   14.5   258    23.6   834.3    0.00 
 329   16:40   0.00   46.9    52   15.5   255    26.0   834.2    0.00 
 329   16:50   0.00   46.2    53   15.7   255    23.3   834.2    0.00 
 329   17:00   0.00   46.7    52   18.0   260    26.1   834.2    0.00 
 329   17:10   0.00   46.6    52   19.3   256    25.7   834.1    0.00 
 329   17:20   0.00   46.7    51   19.2   263    26.1   834.2    0.00 
 329   17:30   0.00   47.2    50   19.2   265    25.8   834.2    0.00 
 329   17:40   0.00   47.3    50   19.0   272    25.0   834.3    0.00 
 329   17:50   0.00   48.3    48   21.6   273    29.7   834.4    0.00 
 329   18:00   0.00   48.2    48   21.5   265    31.0   834.5    0.00 
 329   18:10   0.00   47.7    49   22.8   268    30.2   834.7    0.00 
 329   18:20   0.00   47.5    49   22.1   264    30.1   834.5    0.00 
 329   18:30   0.00   47.5    49   22.2   264    33.5   834.4    0.00 
 329   18:40   0.00   47.5    49   21.9   265    29.7   834.5    0.00 
 329   18:50   0.00   47.5    50   19.7   259    27.8   834.6    0.00 
 329   19:00   0.00   47.2    50   19.1   260    25.3   834.6    0.00 
 329   19:10   0.00   47.2    50   18.6   262    27.0   834.8    0.00 
 329   19:20   0.00   47.6    49   19.8   257    32.0   834.8    0.00 
 329   19:30   0.00   47.4    49   18.9   254    24.0   834.7    0.00 
 329   19:40   0.00   47.0    50   19.6   256    27.0   834.5    0.00 
 329   19:50   0.00   47.2    50   20.1   256    27.2   834.4    0.00 
 329   20:00   0.00   47.3    49   19.9   254    25.6   834.5    0.00 
 329   20:10   0.00   46.9    50   20.1   254    29.9   834.5    0.00 
 329   20:20   0.00   47.2    49   20.2   258    28.6   834.6    0.00 
 329   20:30   0.00   47.5    48   21.2   253    31.1   834.7    0.00 
 329   20:40   0.00   47.6    48   20.0   263    30.1   834.7    0.00 
 329   20:50   0.00   47.8    47   20.9   267    31.0   834.5    0.00 
 329   21:00   0.00   48.2    46   23.2   266    31.3   834.3    0.00 
 329   21:10   0.00   48.1    46   24.0   267    36.0   834.4    0.00 

Return to Clover Valley graphs page.


Western Regional Climate Center,wrcc@dri.edu